Private Wetterstation Wechselburg
Wetterdaten: Woche 16.01.23 - 22.01.23 (KW3)
Datum Zeit Temp. +2m Bodentemp. Temp.+5cm Temp. Wind Windchill X Diff Temp. Feuchte +2m Feuchte +5cm Luftdruck Regen Wind Richtung Sonnenschein Taupunkt Windchill Windben
16.01.2023 00:00 4,1 C 8,4 C 1,7 C 3,7 C 2,9 C 0,0 C 77 % 82 % 1004,8 hPa 0,0 l/m 3,4 km/h (1 Bft) S-SO 0,00 h 0,4 C 2,8 C 7,1 km/h (2 Bft)
16.01.2023 01:00 4,0 C 8,3 C 1,3 C 3,4 C 2,0 C 0,0 C 77 % 83 % 1004,1 hPa 0,0 l/m 5,5 km/h (1 Bft) S-SO 0,00 h 0,3 C 0,6 C 7,7 km/h (2 Bft)
16.01.2023 02:00 3,8 C 8,2 C 0,9 C 3,2 C 1,9 C 0,0 C 77 % 84 % 1003,4 hPa 0,0 l/m 4,4 km/h (1 Bft) S-SO 0,00 h 0,1 C 1,0 C 7,1 km/h (2 Bft)
16.01.2023 03:00 3,4 C 8,2 C 0,7 C 3,0 C 2,2 C 0,0 C 77 % 84 % 1002,6 hPa 0,0 l/m 2,0 km/h (1 Bft) S 0,00 h -0,2 C 2,2 C 3,5 km/h (1 Bft)
16.01.2023 04:00 3,2 C 8,1 C 0,5 C 2,8 C 2,0 C 0,0 C 77 % 84 % 1001,2 hPa 0,0 l/m 1,9 km/h (1 Bft) S-SO 0,00 h -0,4 C 2,0 C 2,9 km/h (1 Bft)
16.01.2023 05:00 3,1 C 8,1 C 0,2 C 2,6 C 1,7 C 0,0 C 77 % 84 % 1000,6 hPa 0,0 l/m 2,5 km/h (1 Bft) S-SO 0,00 h -0,5 C 1,4 C 3,2 km/h (1 Bft)
16.01.2023 06:00 2,0 C 8,0 C -0,7 C 1,5 C 0,4 C 0,0 C 79 % 85 % 999,9 hPa 0,0 l/m 0,0 km/h (0 Bft) N 0,00 h -1,3 C 0,4 C 0,0 km/h (0 Bft)
16.01.2023 07:00 2,2 C 7,9 C -0,7 C 1,8 C 1,1 C 0,0 C 80 % 85 % 999,1 hPa 0,0 l/m 0,4 km/h (0 Bft) S-SO 0,00 h -0,9 C 1,1 C 0,9 km/h (0 Bft)
16.01.2023 08:00 2,8 C 7,9 C -0,7 C 2,5 C 2,0 C 0,0 C 77 % 85 % 998,2 hPa 0,0 l/m 1,0 km/h (0 Bft) S 0,00 h -0,8 C 2,0 C 2,0 km/h (1 Bft)
16.01.2023 09:00 3,5 C 7,8 C -0,7 C 3,6 C 3,5 C 0,1 C 76 % 85 % 997,2 hPa 0,0 l/m 0,2 km/h (0 Bft) N 0,00 h -0,4 C 3,5 C 0,5 km/h (0 Bft)
16.01.2023 10:00 4,4 C 7,8 C -0,7 C 4,6 C 4,5 C 0,2 C 73 % 85 % 996,6 hPa 0,0 l/m 0,6 km/h (0 Bft) O-SO 0,00 h 0,0 C 4,5 C 1,1 km/h (1 Bft)
16.01.2023 11:00 5,2 C 7,8 C 0,3 C 7,0 C 7,0 C 1,8 C 70 % 82 % 995,0 hPa 0,0 l/m 1,1 km/h (1 Bft) S 0,00 h 0,3 C 7,0 C 4,0 km/h (1 Bft)
16.01.2023 12:00 6,3 C 7,7 C 3,8 C 7,9 C 7,9 C 1,6 C 65 % 72 % 993,6 hPa 0,0 l/m 3,1 km/h (1 Bft) S 0,00 h 0,1 C 7,9 C 5,5 km/h (1 Bft)
16.01.2023 13:00 7,3 C 7,7 C 4,7 C 8,8 C 8,8 C 1,4 C 59 % 67 % 992,3 hPa 0,0 l/m 3,0 km/h (1 Bft) S 0,00 h -0,1 C 8,8 C 4,7 km/h (1 Bft)
16.01.2023 14:00 7,5 C 7,8 C 4,8 C 8,8 C 8,8 C 1,3 C 58 % 64 % 990,6 hPa 0,0 l/m 0,2 km/h (0 Bft) N 0,00 h -0,3 C 8,8 C 0,6 km/h (0 Bft)
16.01.2023 15:00 6,9 C 7,8 C 4,4 C 7,2 C 7,2 C 0,4 C 60 % 66 % 989,3 hPa 0,0 l/m 0,4 km/h (0 Bft) N 0,00 h -0,4 C 7,2 C 1,0 km/h (0 Bft)
16.01.2023 16:00 6,3 C 7,8 C 3,5 C 6,1 C 5,8 C 0,0 C 60 % 67 % 988,8 hPa 0,0 l/m 0,3 km/h (0 Bft) N 0,00 h -1,0 C 5,8 C 0,0 km/h (0 Bft)
16.01.2023 17:00 6,1 C 7,9 C 3,4 C 5,9 C 5,6 C 0,0 C 59 % 66 % 988,3 hPa 0,0 l/m 0,6 km/h (0 Bft) SO 0,00 h -1,4 C 5,6 C 1,6 km/h (1 Bft)
16.01.2023 18:00 5,8 C 7,9 C 3,2 C 5,6 C 5,3 C 0,0 C 59 % 66 % 988,5 hPa 0,0 l/m 0,2 km/h (0 Bft) N 0,00 h -1,5 C 5,3 C 0,0 km/h (0 Bft)
16.01.2023 19:00 5,5 C 7,9 C 3,2 C 5,3 C 5,0 C 0,0 C 62 % 67 % 987,5 hPa 0,0 l/m 0,7 km/h (0 Bft) O-NO 0,00 h -1,3 C 5,0 C 2,0 km/h (1 Bft)
16.01.2023 20:00 5,3 C 7,9 C 3,3 C 5,2 C 4,9 C 0,0 C 64 % 68 % 986,6 hPa 0,0 l/m 1,3 km/h (1 Bft) O-NO 0,00 h -0,9 C 4,9 C 2,8 km/h (1 Bft)
16.01.2023 21:00 4,8 C 8,0 C 2,6 C 4,6 C 4,1 C 0,0 C 66 % 71 % 986,1 hPa 0,0 l/m 0,6 km/h (0 Bft) O-NO 0,00 h -1,0 C 4,1 C 1,5 km/h (1 Bft)
16.01.2023 22:00 4,7 C 8,0 C 2,2 C 4,4 C 3,9 C 0,0 C 67 % 73 % 985,6 hPa 0,0 l/m 0,9 km/h (0 Bft) S-SO 0,00 h -0,9 C 3,9 C 1,5 km/h (1 Bft)
16.01.2023 23:00 5,6 C 7,9 C 2,9 C 5,2 C 4,3 C 0,0 C 65 % 72 % 984,8 hPa 0,0 l/m 4,8 km/h (1 Bft) S 0,00 h -0,6 C 3,7 C 8,1 km/h (2 Bft)
17.01.2023 00:00 5,5 C 7,9 C 2,8 C 5,0 C 3,9 C 0,0 C 67 % 74 % 984,3 hPa 0,0 l/m 5,3 km/h (1 Bft) S 0,00 h -0,2 C 2,9 C 10,1 km/h (2 Bft)
17.01.2023 01:00 4,8 C 7,9 C 2,6 C 4,1 C 2,7 C 0,0 C 72 % 78 % 984,5 hPa 0,0 l/m 7,3 km/h (2 Bft) S 0,00 h 0,3 C 0,6 C 12,7 km/h (3 Bft)
17.01.2023 02:00 4,4 C 7,9 C 2,6 C 4,0 C 2,9 C 0,0 C 76 % 80 % 984,4 hPa 0,0 l/m 6,2 km/h (2 Bft) S 0,00 h 0,6 C 1,3 C 8,4 km/h (2 Bft)
17.01.2023 03:00 4,4 C 7,9 C 2,7 C 3,9 C 3,0 C 0,0 C 77 % 80 % 984,7 hPa 0,0 l/m 6,3 km/h (2 Bft) SO 0,00 h 0,7 C 1,4 C 11,3 km/h (2 Bft)
17.01.2023 04:00 4,2 C 7,9 C 2,6 C 3,9 C 3,3 C 0,0 C 77 % 80 % 985,0 hPa 0,0 l/m 5,1 km/h (1 Bft) S-SO 0,00 h 0,5 C 2,5 C 9,7 km/h (2 Bft)
17.01.2023 05:00 3,9 C 7,8 C 2,1 C 3,6 C 2,9 C 0,0 C 76 % 80 % 985,7 hPa 0,0 l/m 4,1 km/h (1 Bft) SW 0,00 h 0,1 C 2,6 C 7,8 km/h (2 Bft)
17.01.2023 06:00 3,6 C 7,8 C 1,8 C 3,4 C 3,0 C 0,0 C 77 % 80 % 986,4 hPa 0,0 l/m 3,5 km/h (1 Bft) SO 0,00 h -0,1 C 3,0 C 5,9 km/h (2 Bft)
17.01.2023 07:00 3,6 C 7,7 C 1,9 C 3,2 C 2,4 C 0,0 C 77 % 80 % 987,1 hPa 0,0 l/m 4,7 km/h (1 Bft) S 0,00 h -0,1 C 1,6 C 8,9 km/h (2 Bft)
17.01.2023 08:00 3,2 C 7,7 C 1,5 C 2,8 C 2,1 C 0,0 C 78 % 81 % 988,1 hPa 0,0 l/m 3,9 km/h (1 Bft) SO 0,00 h -0,3 C 2,0 C 6,7 km/h (2 Bft)
17.01.2023 09:00 3,1 C 7,6 C 1,1 C 2,8 C 2,4 C 0,0 C 76 % 80 % 988,5 hPa 0,0 l/m 3,4 km/h (1 Bft) SW 0,00 h -0,7 C 2,2 C 6,6 km/h (2 Bft)
17.01.2023 10:00 3,6 C 7,6 C 2,3 C 3,5 C 3,0 C 0,0 C 72 % 76 % 988,9 hPa 0,0 l/m 6,6 km/h (2 Bft) S 0,00 h -0,9 C 1,4 C 7,0 km/h (2 Bft)
17.01.2023 11:00 3,8 C 7,4 C 2,7 C 3,7 C 3,1 C 0,0 C 68 % 70 % 989,5 hPa 0,0 l/m 7,5 km/h (2 Bft) S 0,00 h -1,6 C 1,1 C 9,3 km/h (2 Bft)
17.01.2023 12:00 3,9 C 7,4 C 3,2 C 4,3 C 4,2 C 0,5 C 67 % 68 % 989,5 hPa 0,0 l/m 5,0 km/h (1 Bft) SW 0,00 h -1,8 C 3,3 C 6,9 km/h (2 Bft)
17.01.2023 13:00 4,0 C 7,4 C 3,3 C 5,2 C 5,2 C 1,2 C 65 % 66 % 989,7 hPa 0,0 l/m 2,2 km/h (1 Bft) SO 0,00 h -1,9 C 5,2 C 4,2 km/h (1 Bft)
17.01.2023 14:00 3,9 C 7,3 C 2,9 C 4,5 C 4,5 C 0,6 C 64 % 66 % 990,0 hPa 0,0 l/m 1,4 km/h (1 Bft) S-SO 0,00 h -2,3 C 4,5 C 2,2 km/h (1 Bft)
17.01.2023 15:00 3,8 C 7,3 C 2,6 C 4,1 C 4,1 C 0,3 C 63 % 65 % 990,5 hPa 0,0 l/m 1,2 km/h (1 Bft) O-SO 0,00 h -2,7 C 4,1 C 2,5 km/h (1 Bft)
17.01.2023 16:00 3,2 C 7,4 C 1,0 C 2,9 C 2,3 C 0,0 C 63 % 68 % 990,8 hPa 0,0 l/m 0,0 km/h (0 Bft) N 0,00 h -3,3 C 2,3 C 0,0 km/h (0 Bft)
17.01.2023 17:00 0,9 C 7,4 C -1,3 C 0,2 C -1,2 C 0,0 C 68 % 75 % 990,9 hPa 0,0 l/m 0,0 km/h (0 Bft) N 0,00 h -4,2 C -1,2 C 0,0 km/h (0 Bft)
17.01.2023 18:00 -1,1 C 7,4 C -3,8 C -1,9 C -3,4 C 0,0 C 74 % 82 % 990,7 hPa 0,0 l/m 0,0 km/h (0 Bft) N 0,00 h -5,1 C -3,4 C 0,0 km/h (0 Bft)
17.01.2023 19:00 -2,3 C 7,4 C -4,8 C -3,0 C -4,3 C 0,0 C 78 % 86 % 991,2 hPa 0,0 l/m 0,0 km/h (0 Bft) N 0,00 h -5,6 C -4,3 C 0,0 km/h (0 Bft)
17.01.2023 20:00 -3,0 C 7,3 C -5,2 C -3,6 C -4,7 C 0,0 C 81 % 88 % 991,6 hPa 0,0 l/m 0,0 km/h (0 Bft) N 0,00 h -5,8 C -4,7 C 0,0 km/h (0 Bft)
17.01.2023 21:00 -3,4 C 7,3 C -5,7 C -3,9 C -4,9 C 0,0 C 83 % 89 % 992,6 hPa 0,0 l/m 0,0 km/h (0 Bft) N 0,00 h -5,9 C -4,9 C 0,0 km/h (0 Bft)
17.01.2023 22:00 -3,7 C 7,2 C -5,5 C -4,0 C -4,7 C 0,0 C 84 % 90 % 992,8 hPa 0,0 l/m 0,0 km/h (0 Bft) N 0,00 h -5,9 C -4,7 C 0,0 km/h (0 Bft)
17.01.2023 23:00 -3,4 C 7,2 C -5,0 C -3,7 C -4,3 C 0,0 C 85 % 90 % 992,4 hPa 0,0 l/m 0,0 km/h (0 Bft) N 0,00 h -5,6 C -4,3 C 0,0 km/h (0 Bft)
18.01.2023 00:00 -3,3 C 7,1 C -4,8 C -3,6 C -4,2 C 0,0 C 86 % 90 % 991,5 hPa 0,0 l/m 0,0 km/h (0 Bft) N 0,00 h -5,4 C -4,2 C 0,0 km/h (0 Bft)
18.01.2023 01:00 -3,2 C 7,0 C -4,5 C -3,4 C -3,9 C 0,0 C 86 % 91 % 991,5 hPa 0,0 l/m 0,0 km/h (0 Bft) N 0,00 h -5,2 C -3,9 C 0,0 km/h (0 Bft)
18.01.2023 02:00 -3,0 C 7,0 C -4,3 C -3,2 C -3,7 C 0,0 C 87 % 91 % 991,5 hPa 0,0 l/m 0,0 km/h (0 Bft) N 0,00 h -4,9 C -3,7 C 0,0 km/h (0 Bft)
18.01.2023 03:00 -2,5 C 7,0 C -3,6 C -2,6 C -2,8 C 0,0 C 87 % 91 % 991,3 hPa 0,0 l/m 0,0 km/h (0 Bft) N 0,00 h -4,4 C -2,8 C 0,0 km/h (0 Bft)
18.01.2023 04:00 -2,1 C 6,8 C -3,2 C -2,2 C -2,5 C 0,0 C 87 % 91 % 991,4 hPa 0,0 l/m 0,0 km/h (0 Bft) N 0,00 h -3,9 C -2,5 C 0,0 km/h (0 Bft)
18.01.2023 05:00 -1,4 C 6,6 C -2,4 C -1,6 C -2,0 C 0,0 C 88 % 90 % 991,1 hPa 0,0 l/m 0,0 km/h (0 Bft) N 0,00 h -3,1 C -2,0 C 0,0 km/h (0 Bft)
18.01.2023 06:00 -1,0 C 6,7 C -2,1 C -1,2 C -1,6 C 0,0 C 87 % 89 % 991,2 hPa 0,0 l/m 0,0 km/h (0 Bft) N 0,00 h -2,9 C -1,6 C 0,0 km/h (0 Bft)
18.01.2023 07:00 -0,9 C 6,8 C -2,1 C -1,0 C -1,3 C 0,0 C 87 % 91 % 992,0 hPa 0,0 l/m 0,0 km/h (0 Bft) N 0,00 h -2,7 C -1,3 C 0,0 km/h (0 Bft)
18.01.2023 08:00 -0,7 C 6,7 C -2,0 C -0,8 C -1,1 C 0,0 C 88 % 91 % 992,1 hPa 0,0 l/m 0,0 km/h (0 Bft) N 0,00 h -2,5 C -1,1 C 0,0 km/h (0 Bft)
18.01.2023 09:00 -0,2 C 6,7 C -1,3 C -0,1 C -0,1 C 0,2 C 89 % 91 % 992,9 hPa 0,0 l/m 0,0 km/h (0 Bft) N 0,00 h -1,9 C -0,1 C 0,0 km/h (0 Bft)
18.01.2023 10:00 0,2 C 6,7 C -0,8 C 0,4 C 0,4 C 0,2 C 89 % 91 % 993,7 hPa 0,0 l/m 0,0 km/h (0 Bft) N 0,00 h -1,4 C 0,4 C 0,0 km/h (0 Bft)
18.01.2023 11:00 0,5 C 6,7 C -0,5 C 0,5 C 0,5 C 0,0 C 89 % 91 % 994,0 hPa 0,0 l/m 0,0 km/h (0 Bft) N 0,00 h -1,1 C 0,5 C 0,0 km/h (0 Bft)
18.01.2023 12:00 0,7 C 6,7 C -0,4 C 0,7 C 0,7 C 0,0 C 89 % 91 % 994,3 hPa 0,0 l/m 0,0 km/h (0 Bft) N 0,00 h -0,9 C 0,7 C 0,0 km/h (0 Bft)
18.01.2023 13:00 0,8 C 6,7 C -0,4 C 0,7 C 0,6 C 0,0 C 88 % 91 % 995,0 hPa 0,0 l/m 0,0 km/h (0 Bft) N 0,00 h -1,0 C 0,6 C 0,4 km/h (0 Bft)
18.01.2023 14:00 0,6 C 6,7 C -0,6 C 0,5 C 0,3 C 0,0 C 88 % 91 % 995,7 hPa 0,0 l/m 0,1 km/h (0 Bft) N 0,00 h -1,2 C 0,3 C 0,0 km/h (0 Bft)
18.01.2023 15:00 0,5 C 6,7 C -0,8 C 0,4 C 0,1 C 0,0 C 88 % 92 % 996,8 hPa 0,0 l/m 0,1 km/h (0 Bft) N 0,00 h -1,3 C 0,1 C 0,3 km/h (0 Bft)
18.01.2023 16:00 0,4 C 6,7 C -0,9 C 0,3 C -0,0 C 0,0 C 89 % 92 % 998,0 hPa 0,0 l/m 0,1 km/h (0 Bft) N 0,00 h -1,3 C -0,0 C 0,5 km/h (0 Bft)
18.01.2023 17:00 0,1 C 6,6 C -1,1 C 0,0 C -0,1 C 0,0 C 89 % 92 % 999,1 hPa 0,0 l/m 0,1 km/h (0 Bft) N 0,00 h -1,5 C -0,1 C 0,4 km/h (0 Bft)
18.01.2023 18:00 -0,3 C 6,6 C -1,4 C -0,4 C -0,6 C 0,0 C 89 % 92 % 1000,1 hPa 0,0 l/m 0,0 km/h (0 Bft) N 0,00 h -1,9 C -0,6 C 0,0 km/h (0 Bft)
18.01.2023 19:00 -0,6 C 6,6 C -1,8 C -0,8 C -1,1 C 0,0 C 89 % 92 % 1001,4 hPa 0,0 l/m 0,0 km/h (0 Bft) N 0,00 h -2,3 C -1,1 C 0,0 km/h (0 Bft)
18.01.2023 20:00 -0,9 C 6,6 C -2,2 C -1,1 C -1,6 C 0,0 C 89 % 92 % 1002,7 hPa 0,0 l/m 0,0 km/h (0 Bft) N 0,00 h -2,5 C -1,6 C 0,0 km/h (0 Bft)
18.01.2023 21:00 -2,1 C 6,5 C -4,2 C -2,6 C -3,6 C 0,0 C 88 % 92 % 1003,5 hPa 0,0 l/m 0,0 km/h (0 Bft) N 0,00 h -3,8 C -3,6 C 0,0 km/h (0 Bft)
18.01.2023 22:00 -3,6 C 6,4 C -5,9 C -4,1 C -5,1 C 0,0 C 88 % 92 % 1004,3 hPa 0,0 l/m 0,0 km/h (0 Bft) N 0,00 h -5,3 C -5,1 C 0,0 km/h (0 Bft)
18.01.2023 23:00 -4,9 C 6,3 C -7,2 C -5,4 C -6,3 C 0,0 C 88 % 92 % 1004,5 hPa 0,0 l/m 0,0 km/h (0 Bft) N 0,00 h -6,6 C -6,3 C 0,0 km/h (0 Bft)
19.01.2023 00:00 -5,5 C 6,2 C -7,9 C -5,9 C -6,9 C 0,0 C 88 % 92 % 1004,9 hPa 0,0 l/m 0,0 km/h (0 Bft) N 0,00 h -7,1 C -6,9 C 0,0 km/h (0 Bft)
19.01.2023 01:00 -5,5 C 6,1 C -8,0 C -5,9 C -6,7 C 0,0 C 89 % 92 % 1005,2 hPa 0,0 l/m 0,0 km/h (0 Bft) N 0,00 h -7,1 C -6,7 C 0,0 km/h (0 Bft)
19.01.2023 02:00 -5,5 C 6,1 C -8,0 C -5,9 C -6,7 C 0,0 C 88 % 92 % 1005,5 hPa 0,0 l/m 0,0 km/h (0 Bft) N 0,00 h -7,1 C -6,7 C 0,0 km/h (0 Bft)
19.01.2023 03:00 -6,1 C 6,0 C -8,4 C -6,5 C -7,4 C 0,0 C 88 % 92 % 1005,7 hPa 0,0 l/m 0,0 km/h (0 Bft) N 0,00 h -7,8 C -7,4 C 0,0 km/h (0 Bft)
19.01.2023 04:00 -6,3 C 5,8 C -8,9 C -6,7 C -7,5 C 0,0 C 88 % 92 % 1005,9 hPa 0,0 l/m 0,0 km/h (0 Bft) N 0,00 h -7,9 C -7,5 C 0,0 km/h (0 Bft)
19.01.2023 05:00 -6,8 C 5,6 C -9,2 C -7,2 C -8,1 C 0,0 C 88 % 92 % 1005,9 hPa 0,0 l/m 0,0 km/h (0 Bft) N 0,00 h -8,5 C -8,1 C 0,0 km/h (0 Bft)
19.01.2023 06:00 -6,7 C 5,5 C -9,1 C -7,1 C -7,9 C 0,0 C 88 % 92 % 1006,1 hPa 0,0 l/m 0,0 km/h (0 Bft) N 0,00 h -8,3 C -7,9 C 0,0 km/h (0 Bft)
19.01.2023 07:00 -6,5 C 5,4 C -8,9 C -6,9 C -7,6 C 0,0 C 89 % 92 % 1006,1 hPa 0,0 l/m 0,0 km/h (0 Bft) N 0,00 h -8,0 C -7,6 C 0,0 km/h (0 Bft)
19.01.2023 08:00 -6,1 C 5,4 C -8,4 C -6,5 C -7,1 C 0,0 C 89 % 92 % 1006,2 hPa 0,0 l/m 0,0 km/h (0 Bft) N 0,00 h -7,7 C -7,1 C 0,0 km/h (0 Bft)
19.01.2023 09:00 -4,4 C 5,2 C -6,0 C -4,4 C -4,5 C 0,0 C 89 % 93 % 1007,3 hPa 0,0 l/m 0,8 km/h (0 Bft) W-NW 0,00 h -5,9 C -4,5 C 1,3 km/h (1 Bft)
19.01.2023 10:00 -3,0 C 5,1 C -4,6 C -2,9 C -2,9 C 0,2 C 89 % 92 % 1007,4 hPa 0,0 l/m 1,2 km/h (1 Bft) W-NW 0,00 h -4,6 C -2,9 C 1,5 km/h (1 Bft)
19.01.2023 11:00 -1,5 C 5,0 C -3,2 C -1,4 C -1,5 C 0,1 C 89 % 92 % 1007,6 hPa 0,0 l/m 2,8 km/h (1 Bft) W-NW 0,00 h -3,1 C -1,5 C 4,8 km/h (1 Bft)
19.01.2023 12:00 -0,5 C 4,9 C -2,4 C -0,2 C -0,2 C 0,4 C 86 % 91 % 1007,2 hPa 0,0 l/m 2,4 km/h (1 Bft) SO 0,00 h -2,5 C -0,2 C 4,5 km/h (1 Bft)
19.01.2023 13:00 0,4 C 4,9 C -1,7 C 1,2 C 1,1 C 0,9 C 83 % 89 % 1007,1 hPa 0,0 l/m 3,4 km/h (1 Bft) S-SO 0,00 h -2,3 C 0,8 C 5,2 km/h (1 Bft)
19.01.2023 14:00 0,8 C 4,9 C -1,4 C 2,9 C 2,9 C 2,1 C 78 % 86 % 1007,1 hPa 0,0 l/m 4,3 km/h (1 Bft) SW 0,00 h -2,6 C 2,6 C 7,6 km/h (2 Bft)
19.01.2023 15:00 0,3 C 4,9 C -1,4 C 1,1 C 0,9 C 0,9 C 78 % 84 % 1007,4 hPa 0,0 l/m 3,6 km/h (1 Bft) SW 0,08 h -3,1 C 0,9 C 6,9 km/h (2 Bft)
19.01.2023 16:00 -0,1 C 4,9 C -1,8 C -0,3 C -0,9 C 0,0 C 79 % 84 % 1007,7 hPa 0,0 l/m 2,1 km/h (1 Bft) SO 0,00 h -3,3 C -0,9 C 3,5 km/h (1 Bft)
19.01.2023 17:00 0,1 C 4,9 C -1,5 C -0,0 C -0,3 C 0,0 C 79 % 84 % 1007,8 hPa 0,0 l/m 2,0 km/h (1 Bft) SW 0,00 h -3,1 C -0,3 C 4,0 km/h (1 Bft)
19.01.2023 18:00 0,3 C 4,9 C -1,3 C 0,2 C -0,0 C 0,0 C 79 % 84 % 1008,2 hPa 0,0 l/m 1,4 km/h (1 Bft) W-SW 0,00 h -2,9 C -0,0 C 2,8 km/h (1 Bft)
19.01.2023 19:00 0,3 C 4,9 C -1,2 C 0,2 C 0,1 C 0,0 C 80 % 85 % 1008,5 hPa 0,0 l/m 0,8 km/h (0 Bft) SO 0,00 h -2,7 C 0,1 C 2,7 km/h (1 Bft)
19.01.2023 20:00 0,4 C 4,9 C -1,1 C 0,3 C 0,1 C 0,0 C 81 % 86 % 1008,8 hPa 0,0 l/m 1,0 km/h (0 Bft) O-SO 0,00 h -2,5 C 0,1 C 1,7 km/h (1 Bft)
19.01.2023 21:00 0,0 C 5,0 C -1,2 C -0,1 C -0,2 C 0,0 C 84 % 89 % 1009,3 hPa 0,0 l/m 0,8 km/h (0 Bft) SW 0,00 h -2,3 C -0,2 C 3,1 km/h (1 Bft)
19.01.2023 22:00 0,1 C 5,2 C -1,2 C 0,1 C -0,1 C 0,0 C 85 % 89 % 1010,0 hPa 0,0 l/m 0,2 km/h (0 Bft) N 0,00 h -2,1 C -0,1 C 0,0 km/h (0 Bft)
19.01.2023 23:00 0,1 C 5,3 C -1,2 C -0,1 C -0,4 C 0,0 C 87 % 91 % 1010,5 hPa 0,0 l/m 0,1 km/h (0 Bft) N 0,00 h -1,9 C -0,4 C 0,4 km/h (0 Bft)
20.01.2023 00:00 0,2 C 5,3 C -1,2 C 0,1 C -0,2 C 0,0 C 87 % 91 % 1010,4 hPa 0,0 l/m 0,0 km/h (0 Bft) N 0,00 h -1,7 C -0,2 C 0,2 km/h (0 Bft)
20.01.2023 01:00 0,2 C 5,3 C -1,3 C 0,0 C -0,3 C 0,0 C 88 % 92 % 1010,4 hPa 0,0 l/m 0,0 km/h (0 Bft) N 0,00 h -1,6 C -0,3 C 0,0 km/h (0 Bft)
20.01.2023 02:00 0,1 C 5,3 C -1,3 C -0,0 C -0,3 C 0,0 C 88 % 92 % 1010,9 hPa 0,0 l/m 0,0 km/h (0 Bft) N 0,00 h -1,7 C -0,3 C 0,0 km/h (0 Bft)
20.01.2023 03:00 0,0 C 5,4 C -1,3 C -0,1 C -0,4 C 0,0 C 88 % 92 % 1011,3 hPa 0,0 l/m 0,0 km/h (0 Bft) N 0,00 h -1,7 C -0,4 C 0,0 km/h (0 Bft)
20.01.2023 04:00 0,0 C 5,4 C -1,3 C -0,1 C -0,4 C 0,0 C 88 % 92 % 1011,9 hPa 0,0 l/m 0,1 km/h (0 Bft) N 0,00 h -1,6 C -0,4 C 0,8 km/h (0 Bft)
20.01.2023 05:00 -0,0 C 5,4 C -1,3 C -0,1 C -0,4 C 0,0 C 89 % 92 % 1012,6 hPa 0,0 l/m 0,0 km/h (0 Bft) N 0,00 h -1,6 C -0,4 C 0,0 km/h (0 Bft)
20.01.2023 06:00 -0,1 C 5,4 C -1,3 C -0,3 C -0,5 C 0,0 C 89 % 92 % 1012,8 hPa 0,0 l/m 0,1 km/h (0 Bft) N 0,00 h -1,7 C -0,5 C 0,0 km/h (0 Bft)
20.01.2023 07:00 -0,1 C 5,4 C -1,3 C -0,2 C -0,5 C 0,0 C 89 % 92 % 1013,3 hPa 0,0 l/m 0,0 km/h (0 Bft) N 0,00 h -1,7 C -0,5 C 0,0 km/h (0 Bft)
20.01.2023 08:00 -0,1 C 5,4 C -1,3 C -0,1 C -0,3 C 0,0 C 89 % 92 % 1014,6 hPa 0,0 l/m 0,0 km/h (0 Bft) N 0,00 h -1,7 C -0,3 C 0,0 km/h (0 Bft)
20.01.2023 09:00 0,1 C 5,4 C -0,9 C 0,5 C 0,5 C 0,3 C 89 % 92 % 1014,8 hPa 0,0 l/m 0,0 km/h (0 Bft) N 0,00 h -1,5 C 0,5 C 0,0 km/h (0 Bft)
20.01.2023 10:00 0,7 C 5,4 C -0,4 C 1,9 C 1,9 C 1,2 C 89 % 91 % 1015,8 hPa 0,0 l/m 0,0 km/h (0 Bft) N 0,00 h -0,9 C 1,9 C 0,0 km/h (0 Bft)
20.01.2023 11:00 1,4 C 5,3 C 0,8 C 3,6 C 3,6 C 2,2 C 88 % 89 % 1016,1 hPa 0,0 l/m 0,1 km/h (0 Bft) N 0,00 h -0,5 C 3,6 C 0,3 km/h (0 Bft)
20.01.2023 12:00 1,5 C 5,2 C 1,3 C 3,7 C 3,7 C 2,2 C 85 % 87 % 1016,5 hPa 0,0 l/m 0,1 km/h (0 Bft) N 0,00 h -0,8 C 3,7 C 0,0 km/h (0 Bft)
20.01.2023 13:00 1,9 C 5,2 C 1,4 C 4,3 C 4,3 C 2,4 C 83 % 86 % 1017,3 hPa 0,0 l/m 0,1 km/h (0 Bft) N 0,00 h -0,7 C 4,3 C 0,0 km/h (0 Bft)
20.01.2023 14:00 1,9 C 5,2 C 1,0 C 3,3 C 3,3 C 1,5 C 81 % 85 % 1018,1 hPa 0,0 l/m 0,0 km/h (0 Bft) N 0,00 h -1,1 C 3,3 C 0,0 km/h (0 Bft)
20.01.2023 15:00 1,4 C 5,2 C 0,3 C 1,8 C 1,8 C 0,4 C 80 % 85 % 1018,8 hPa 0,0 l/m 0,0 km/h (0 Bft) N 0,00 h -1,6 C 1,8 C 0,0 km/h (0 Bft)
20.01.2023 16:00 0,8 C 5,2 C -0,4 C 0,7 C 0,3 C 0,0 C 80 % 87 % 1018,8 hPa 0,0 l/m 0,0 km/h (0 Bft) N 0,00 h -2,3 C 0,3 C 0,0 km/h (0 Bft)
20.01.2023 17:00 -0,3 C 5,4 C -1,6 C -0,6 C -1,4 C 0,0 C 81 % 89 % 1020,0 hPa 0,0 l/m 0,0 km/h (0 Bft) N 0,00 h -3,1 C -1,4 C 0,0 km/h (0 Bft)
20.01.2023 18:00 -0,8 C 5,5 C -2,1 C -1,1 C -1,7 C 0,0 C 83 % 91 % 1020,1 hPa 0,0 l/m 0,0 km/h (0 Bft) N 0,00 h -3,3 C -1,7 C 0,0 km/h (0 Bft)
20.01.2023 19:00 -0,8 C 5,5 C -1,8 C -1,0 C -1,3 C 0,0 C 85 % 91 % 1020,8 hPa 0,0 l/m 0,0 km/h (0 Bft) N 0,00 h -3,1 C -1,3 C 0,0 km/h (0 Bft)
20.01.2023 20:00 -1,0 C 5,5 C -2,0 C -1,2 C -1,7 C 0,0 C 86 % 92 % 1021,4 hPa 0,0 l/m 0,0 km/h (0 Bft) N 0,00 h -3,1 C -1,7 C 0,0 km/h (0 Bft)
20.01.2023 21:00 -1,1 C 5,5 C -1,8 C -1,2 C -1,5 C 0,0 C 86 % 93 % 1021,8 hPa 0,0 l/m 0,0 km/h (0 Bft) N 0,00 h -3,1 C -1,5 C 0,0 km/h (0 Bft)
20.01.2023 22:00 -1,2 C 5,5 C -2,3 C -1,5 C -2,1 C 0,0 C 87 % 93 % 1022,4 hPa 0,0 l/m 0,0 km/h (0 Bft) N 0,00 h -3,1 C -2,1 C 0,0 km/h (0 Bft)
20.01.2023 23:00 -1,1 C 5,5 C -2,0 C -1,3 C -1,6 C 0,0 C 87 % 94 % 1022,7 hPa 0,0 l/m 0,0 km/h (0 Bft) N 0,00 h -3,0 C -1,6 C 0,0 km/h (0 Bft)
21.01.2023 00:00 -0,9 C 5,5 C -1,7 C -1,0 C -1,1 C 0,0 C 88 % 95 % 1023,4 hPa 0,0 l/m 0,0 km/h (0 Bft) N 0,00 h -2,6 C -1,1 C 0,0 km/h (0 Bft)
21.01.2023 01:00 -1,0 C 5,5 C -1,7 C -1,0 C -1,3 C 0,0 C 88 % 94 % 1023,4 hPa 0,0 l/m 0,1 km/h (0 Bft) N 0,00 h -2,7 C -1,3 C 1,0 km/h (0 Bft)
21.01.2023 02:00 -1,3 C 5,5 C -1,9 C -1,4 C -1,6 C 0,0 C 88 % 94 % 1023,4 hPa 0,0 l/m 0,3 km/h (0 Bft) N 0,00 h -3,0 C -1,6 C 0,7 km/h (0 Bft)
21.01.2023 03:00 -1,3 C 5,4 C -1,9 C -1,4 C -1,5 C 0,0 C 88 % 94 % 1023,3 hPa 0,0 l/m 0,3 km/h (0 Bft) N-NO 0,00 h -3,0 C -1,5 C 1,0 km/h (0 Bft)
21.01.2023 04:00 -1,3 C 5,4 C -2,0 C -1,4 C -1,7 C 0,0 C 88 % 94 % 1023,3 hPa 0,0 l/m 1,0 km/h (0 Bft) N 0,00 h -3,1 C -1,7 C 2,4 km/h (1 Bft)
21.01.2023 05:00 -1,7 C 5,4 C -2,3 C -1,8 C -2,0 C 0,0 C 88 % 94 % 1024,1 hPa 0,0 l/m 0,5 km/h (0 Bft) N 0,00 h -3,4 C -2,0 C 1,2 km/h (1 Bft)
21.01.2023 06:00 -2,0 C 5,4 C -2,6 C -2,2 C -2,4 C 0,0 C 89 % 94 % 1024,2 hPa 0,0 l/m 1,3 km/h (1 Bft) NO 0,00 h -3,7 C -2,4 C 2,1 km/h (1 Bft)
21.01.2023 07:00 -2,1 C 5,4 C -2,8 C -2,2 C -2,5 C 0,0 C 89 % 95 % 1024,9 hPa 0,0 l/m 0,8 km/h (0 Bft) N-NO 0,00 h -3,7 C -2,5 C 0,7 km/h (0 Bft)
21.01.2023 08:00 -2,1 C 5,3 C -2,6 C -2,2 C -2,4 C 0,0 C 89 % 95 % 1024,9 hPa 0,0 l/m 0,3 km/h (0 Bft) N 0,00 h -3,6 C -2,4 C 1,7 km/h (1 Bft)
21.01.2023 09:00 -1,8 C 5,2 C -2,3 C -1,8 C -1,9 C 0,0 C 89 % 95 % 1025,5 hPa 0,0 l/m 0,6 km/h (0 Bft) N 0,00 h -3,4 C -1,9 C 1,5 km/h (1 Bft)
21.01.2023 10:00 -1,4 C 5,2 C -1,8 C -1,2 C -1,2 C 0,2 C 89 % 95 % 1025,1 hPa 0,0 l/m 1,1 km/h (1 Bft) N-NW 0,00 h -3,0 C -1,2 C 1,3 km/h (1 Bft)
21.01.2023 11:00 -0,9 C 5,1 C -1,2 C -0,3 C -0,3 C 0,5 C 89 % 94 % 1025,6 hPa 0,0 l/m 0,8 km/h (0 Bft) W 0,00 h -2,5 C -0,3 C 0,6 km/h (0 Bft)
21.01.2023 12:00 -0,4 C 5,0 C -0,8 C 0,4 C 0,4 C 0,8 C 88 % 92 % 1025,2 hPa 0,0 l/m 0,9 km/h (0 Bft) N-NW 0,00 h -2,1 C 0,4 C 1,4 km/h (1 Bft)
21.01.2023 13:00 -0,1 C 5,0 C -0,4 C 0,8 C 0,8 C 0,9 C 87 % 91 % 1025,2 hPa 0,0 l/m 0,8 km/h (0 Bft) NW 0,00 h -1,9 C 0,8 C 0,8 km/h (0 Bft)
21.01.2023 14:00 0,3 C 4,9 C -0,2 C 0,9 C 0,9 C 0,7 C 86 % 91 % 1024,6 hPa 0,0 l/m 0,8 km/h (0 Bft) W-NW 0,00 h -1,7 C 0,9 C 3,7 km/h (1 Bft)
21.01.2023 15:00 0,4 C 5,0 C -0,1 C 0,7 C 0,7 C 0,3 C 85 % 91 % 1024,4 hPa 0,0 l/m 1,1 km/h (0 Bft) N-NW 0,00 h -1,8 C 0,7 C 1,9 km/h (1 Bft)
21.01.2023 16:00 0,1 C 5,2 C -0,6 C 0,0 C -0,1 C 0,0 C 87 % 94 % 1023,3 hPa 0,0 l/m 0,6 km/h (0 Bft) NW 0,00 h -1,9 C -0,1 C 1,2 km/h (1 Bft)
21.01.2023 17:00 -0,1 C 5,2 C -0,9 C -0,2 C -0,4 C 0,0 C 88 % 95 % 1023,1 hPa 0,0 l/m 0,2 km/h (0 Bft) N 0,00 h -1,9 C -0,4 C 0,9 km/h (0 Bft)
21.01.2023 18:00 0,0 C 5,1 C -0,8 C -0,1 C -0,2 C 0,0 C 89 % 96 % 1023,0 hPa 0,0 l/m 0,7 km/h (0 Bft) O-NO 0,00 h -1,6 C -0,2 C 2,0 km/h (1 Bft)
21.01.2023 19:00 -0,0 C 5,1 C -0,7 C -0,1 C -0,2 C 0,0 C 89 % 97 % 1023,1 hPa 0,0 l/m 0,6 km/h (0 Bft) N 0,00 h -1,6 C -0,2 C 1,9 km/h (1 Bft)
21.01.2023 20:00 -0,2 C 5,1 C -0,7 C -0,2 C -0,3 C 0,0 C 89 % 97 % 1022,7 hPa 0,0 l/m 0,0 km/h (0 Bft) N 0,00 h -1,7 C -0,3 C 0,0 km/h (0 Bft)
21.01.2023 21:00 -0,3 C 5,2 C -0,7 C -0,3 C -0,3 C 0,0 C 89 % 97 % 1023,1 hPa 0,0 l/m 0,0 km/h (0 Bft) N 0,00 h -1,9 C -0,3 C 0,0 km/h (0 Bft)
21.01.2023 22:00 -0,4 C 5,2 C -0,7 C -0,3 C -0,3 C 0,1 C 89 % 97 % 1023,8 hPa 0,0 l/m 0,0 km/h (0 Bft) N 0,00 h -2,0 C -0,3 C 0,0 km/h (0 Bft)
21.01.2023 23:00 -0,5 C 5,2 C -0,8 C -0,4 C -0,4 C 0,1 C 89 % 97 % 1024,3 hPa 0,0 l/m 0,0 km/h (0 Bft) N 0,00 h -2,1 C -0,4 C 0,0 km/h (0 Bft)
22.01.2023 00:00 -0,6 C 5,2 C -0,9 C -0,4 C -0,4 C 0,2 C 89 % 97 % 1024,4 hPa 0,0 l/m 0,0 km/h (0 Bft) N 0,00 h -2,2 C -0,4 C 0,0 km/h (0 Bft)
22.01.2023 01:00 -0,7 C 5,2 C -0,9 C -0,4 C -0,4 C 0,3 C 89 % 98 % 1024,1 hPa 0,0 l/m 0,0 km/h (0 Bft) N 0,00 h -2,3 C -0,4 C 0,0 km/h (0 Bft)
22.01.2023 02:00 -0,8 C 5,2 C -0,8 C -0,4 C -0,4 C 0,4 C 89 % 98 % 1024,1 hPa 0,0 l/m 0,0 km/h (0 Bft) N 0,00 h -2,4 C -0,4 C 0,0 km/h (0 Bft)
22.01.2023 03:00 -0,8 C 5,2 C -0,8 C -0,4 C -0,4 C 0,4 C 89 % 98 % 1024,5 hPa 0,0 l/m 0,0 km/h (0 Bft) N 0,00 h -2,4 C -0,4 C 0,0 km/h (0 Bft)
22.01.2023 04:00 -0,9 C 5,2 C -0,8 C -0,4 C -0,4 C 0,5 C 89 % 98 % 1024,8 hPa 0,0 l/m 0,0 km/h (0 Bft) N 0,00 h -2,5 C -0,4 C 0,0 km/h (0 Bft)
22.01.2023 05:00 -0,9 C 5,2 C -0,8 C -0,4 C -0,4 C 0,5 C 89 % 98 % 1024,7 hPa 0,0 l/m 0,0 km/h (0 Bft) N 0,00 h -2,5 C -0,4 C 0,0 km/h (0 Bft)
22.01.2023 06:00 -0,9 C 5,2 C -0,7 C -0,4 C -0,4 C 0,5 C 89 % 99 % 1024,9 hPa 0,0 l/m 0,0 km/h (0 Bft) N 0,00 h -2,5 C -0,4 C 0,0 km/h (0 Bft)
22.01.2023 07:00 -1,0 C 5,2 C -0,7 C -0,4 C -0,4 C 0,6 C 89 % 98 % 1025,3 hPa 0,0 l/m 0,0 km/h (0 Bft) N 0,00 h -2,6 C -0,4 C 0,0 km/h (0 Bft)
22.01.2023 08:00 -1,1 C 5,2 C -0,6 C -0,3 C -0,3 C 0,8 C 89 % 99 % 1025,6 hPa 0,0 l/m 0,0 km/h (0 Bft) N 0,58 h -2,7 C -0,3 C 0,0 km/h (0 Bft)
22.01.2023 09:00 -1,0 C 5,2 C -0,4 C -0,0 C -0,0 C 0,9 C 89 % 99 % 1026,4 hPa 0,0 l/m 0,0 km/h (0 Bft) N 0,00 h -2,5 C -0,0 C 0,0 km/h (0 Bft)
22.01.2023 10:00 -0,9 C 5,2 C -0,1 C 0,2 C 0,2 C 1,2 C 89 % 99 % 1026,8 hPa 0,0 l/m 0,0 km/h (0 Bft) N 0,00 h -2,5 C 0,2 C 0,0 km/h (0 Bft)
22.01.2023 11:00 -0,9 C 5,2 C 0,1 C 0,6 C 0,6 C 1,5 C 89 % 99 % 1027,2 hPa 0,0 l/m 0,0 km/h (0 Bft) N 0,00 h -2,5 C 0,6 C 0,0 km/h (0 Bft)
22.01.2023 12:00 -0,9 C 5,3 C 0,2 C 0,7 C 0,7 C 1,6 C 89 % 99 % 1027,4 hPa 0,0 l/m 0,1 km/h (0 Bft) N-NO 0,00 h -2,5 C 0,7 C 0,3 km/h (0 Bft)
22.01.2023 13:00 -1,1 C 5,3 C -0,0 C 0,5 C 0,5 C 1,5 C 89 % 99 % 1027,1 hPa 0,0 l/m 1,6 km/h (1 Bft) O-NO 0,00 h -2,6 C 0,5 C 2,4 km/h (1 Bft)
22.01.2023 14:00 -1,0 C 5,3 C 0,1 C 0,6 C 0,6 C 1,6 C 89 % 99 % 1027,2 hPa 0,0 l/m 1,8 km/h (1 Bft) O-NO 0,00 h -2,6 C 0,6 C 3,0 km/h (1 Bft)
22.01.2023 15:00 -1,0 C 5,3 C 0,1 C 0,6 C 0,6 C 1,6 C 89 % 99 % 1027,2 hPa 0,0 l/m 0,7 km/h (0 Bft) NO 0,50 h -2,5 C 0,6 C 0,7 km/h (0 Bft)
22.01.2023 16:00 -1,1 C 5,3 C -0,3 C 0,1 C 0,1 C 1,2 C 89 % 99 % 1028,1 hPa 0,0 l/m 0,1 km/h (0 Bft) N 0,52 h -2,7 C 0,1 C 0,0 km/h (0 Bft)
22.01.2023 17:00 -1,1 C 5,3 C -0,4 C -0,1 C -0,1 C 1,0 C 89 % 99 % 1028,5 hPa 0,7 l/m 0,3 km/h (0 Bft) O-NO 0,00 h -2,7 C -0,1 C 0,6 km/h (0 Bft)
22.01.2023 18:00 -1,1 C 5,3 C -0,5 C -0,1 C -0,1 C 1,0 C 89 % 99 % 1028,7 hPa 0,0 l/m 0,9 km/h (0 Bft) N-NO 0,00 h -2,6 C -0,1 C 1,3 km/h (1 Bft)
22.01.2023 19:00 -1,1 C 5,3 C -0,5 C -0,1 C -0,1 C 1,0 C 89 % 99 % 1028,7 hPa 0,0 l/m 0,5 km/h (0 Bft) N 0,00 h -2,7 C -0,1 C 0,4 km/h (0 Bft)
22.01.2023 20:00 -1,1 C 5,3 C -0,5 C -0,1 C -0,1 C 1,0 C 89 % 99 % 1029,6 hPa 0,0 l/m 0,0 km/h (0 Bft) N 0,00 h -2,7 C -0,1 C 0,0 km/h (0 Bft)
22.01.2023 21:00 -1,2 C 5,3 C -0,5 C -0,2 C -0,2 C 1,0 C 89 % 99 % 1030,4 hPa 0,0 l/m 0,0 km/h (0 Bft) N 0,00 h -2,7 C -0,2 C 0,0 km/h (0 Bft)
22.01.2023 22:00 -1,3 C 5,3 C -0,5 C -0,3 C -0,3 C 1,0 C 89 % 99 % 1030,4 hPa 0,0 l/m 0,0 km/h (0 Bft) N 0,00 h -2,9 C -0,3 C 0,0 km/h (0 Bft)
22.01.2023 23:00 -1,3 C 5,3 C -0,5 C -0,2 C -0,2 C 1,1 C 89 % 99 % 1030,8 hPa 0,0 l/m 0,0 km/h (0 Bft) N 0,00 h -2,9 C -0,2 C 0,0 km/h (0 Bft)
Min-Datum _ 19.01.23 19.01.23 19.01.23 19.01.23 19.01.23 16.01.23 16.01.23 16.01.23 17.01.23 - 16.01.23 - - 19.01.23 19.01.23 16.01.23
_ Min-Zeit 05:15 12:10 05:15 05:10 05:10 00:00 13:45 14:15 00:05 - 05:50 - - 05:15 05:10 03:20
Minimum _ -6,9 C 4,9 C -9,3 C -7,3 C -8,2 C 0,0 C 57 % 63 % 984,2 hPa - 0,0 km/h (0 Bft) - - -8,5 C -8,2 C 0,0 km/h (0 Bft)
Max-Datum _ 16.01.23 16.01.23 16.01.23 16.01.23 16.01.23 19.01.23 18.01.23 22.01.23 22.01.23 22.01.23 17.01.23 - 22.01.23 17.01.23 16.01.23 17.01.23
_ Max-Zeit 14:05 00:00 14:05 14:15 14:15 14:35 09:15 04:45 23:00 17:40 11:10 - 16:26 02:40 14:15 01:25
Maximum _ 7,7 C 8,4 C 5,0 C 9,5 C 9,5 C 3,0 C 89 % 99 % 1030,8 hPa 0,7 l/m 10,9 km/h
S (2 Bft)
- 0,25 h 0,7 C 9,5 C 27,7 km/h
S (4 Bft)
Durchschnitt _ 0,2 C 6,2 C -1,1 C 0,4 C 0,0 C 0,3 C 83 % 88 % 1007,7 hPa #0,7 l/m 0,9 km/h (0 Bft) S #1:41 h -2,5 C -0,1 C 1,7 km/h (1 Bft)
2023 www.wetterstation-wechselburg.de